createdAt,value
2019-04-20T00:00:43.102Z,3.80
2019-04-20T00:03:07.711Z,3.57
2019-04-20T00:05:36.927Z,4.00
2019-04-20T00:08:09.155Z,3.53
2019-04-20T00:10:46.477Z,3.57
2019-04-20T00:13:15.944Z,3.50
2019-04-20T00:15:36.757Z,4.20
2019-04-20T00:18:07.163Z,4.03
2019-04-20T00:20:37.188Z,3.30
2019-04-20T00:23:19.754Z,3.63
2019-04-20T00:26:12.431Z,3.50
2019-04-20T00:28:47.321Z,3.03
2019-04-20T00:31:17.993Z,4.03
2019-04-20T00:33:43.150Z,3.77
2019-04-20T00:35:59.296Z,3.40
2019-04-20T00:38:33.540Z,4.13
2019-04-20T00:41:00.152Z,4.30
2019-04-20T00:43:30.403Z,4.47
2019-04-20T00:46:04.844Z,3.73
2019-04-20T00:48:36.042Z,3.40
2019-04-20T00:51:17.310Z,3.63
2019-04-20T00:53:31.475Z,4.30
2019-04-20T00:55:53.474Z,3.60
2019-04-20T00:58:28.847Z,3.70
2019-04-20T01:01:24.869Z,3.60
2019-04-20T01:03:33.957Z,3.57
2019-04-20T01:06:19.254Z,4.20
2019-04-20T01:08:40.205Z,3.40
2019-04-20T01:11:08.659Z,4.00
2019-04-20T01:13:44.384Z,4.27
2019-04-20T01:16:14.638Z,4.03
2019-04-20T01:18:34.623Z,3.53
2019-04-20T01:21:08.675Z,3.70
2019-04-20T01:23:40.104Z,4.17
2019-04-20T01:26:07.093Z,3.37
2019-04-20T01:28:46.843Z,3.50
2019-04-20T01:31:12.610Z,3.50
2019-04-20T01:33:42.388Z,4.00
2019-04-20T01:36:19.598Z,3.57
2019-04-20T01:38:44.700Z,3.57
2019-04-20T01:40:59.120Z,4.20
2019-04-20T01:43:27.036Z,3.30
2019-04-20T01:46:01.410Z,3.53
2019-04-20T01:48:28.675Z,3.90
2019-04-20T01:51:04.866Z,3.60
2019-04-20T01:53:46.089Z,3.80
2019-04-20T01:56:12.479Z,3.80
2019-04-20T01:59:05.061Z,3.50
2019-04-20T02:01:42.793Z,3.93
2019-04-20T02:04:25.230Z,4.40
2019-04-20T02:06:52.115Z,4.73
2019-04-20T02:09:22.215Z,3.37
2019-04-20T02:11:48.794Z,4.10
2019-04-20T02:14:26.220Z,3.33
2019-04-20T02:16:50.598Z,4.77
2019-04-20T02:19:30.406Z,3.53
2019-04-20T02:21:58.870Z,3.90
2019-04-20T02:24:16.464Z,4.00
2019-04-20T02:26:45.131Z,4.37
2019-04-20T02:29:35.093Z,4.17
2019-04-20T02:32:15.538Z,4.70
2019-04-20T02:34:49.160Z,4.20
2019-04-20T02:40:13.078Z,3.87
2019-04-20T02:45:24.049Z,3.50
2019-04-20T02:52:45.999Z,3.47
2019-04-20T03:00:10.408Z,3.37
2019-04-20T03:02:18.501Z,3.80
2019-04-20T03:04:37.305Z,3.50
2019-04-20T03:07:15.679Z,3.70
2019-04-20T03:09:44.265Z,3.63
2019-04-20T03:12:26.185Z,4.43
2019-04-20T03:14:39.275Z,4.30
2019-04-20T03:17:21.616Z,4.43
2019-04-20T03:19:41.140Z,4.37
2019-04-20T03:22:21.411Z,3.33
2019-04-20T03:24:48.572Z,4.23
2019-04-20T03:27:19.617Z,4.10
2019-04-20T03:29:52.659Z,4.00
2019-04-20T03:33:11.705Z,4.00
2019-04-20T03:35:20.723Z,5.13
2019-04-20T03:37:44.229Z,4.07
2019-04-20T03:40:05.585Z,4.00
2019-04-20T03:42:22.321Z,3.83
2019-04-20T03:44:57.901Z,4.10
2019-04-20T03:47:31.444Z,3.43
2019-04-20T03:50:11.731Z,4.00
2019-04-20T03:53:05.702Z,3.57
2019-04-20T03:55:26.154Z,4.13
2019-04-20T03:58:15.344Z,4.13
2019-04-20T04:00:59.874Z,3.70
2019-04-20T04:03:53.395Z,4.33
2019-04-20T04:06:10.527Z,3.70
2019-04-20T04:08:36.436Z,3.50
2019-04-20T04:11:17.330Z,4.03
2019-04-20T04:13:29.351Z,3.63
2019-04-20T04:16:02.813Z,3.83
2019-04-20T04:18:31.779Z,4.10
2019-04-20T04:21:01.974Z,3.77
2019-04-20T04:23:40.990Z,3.97
2019-04-20T04:26:08.647Z,3.80
2019-04-20T04:28:40.960Z,3.73
2019-04-20T04:31:14.637Z,3.67
2019-04-20T04:33:53.180Z,3.90
2019-04-20T04:36:10.511Z,4.10
2019-04-20T04:43:39.981Z,3.87
2019-04-20T04:45:51.384Z,4.40
2019-04-20T04:48:27.558Z,3.87
2019-04-20T04:50:56.460Z,3.90
2019-04-20T04:53:33.821Z,4.50
2019-04-20T04:55:56.539Z,4.40
2019-04-20T04:58:19.501Z,3.53
2019-04-20T05:00:49.129Z,4.00
2019-04-20T05:03:37.565Z,3.90
2019-04-20T05:06:13.420Z,3.97
2019-04-20T05:08:30.959Z,3.97
2019-04-20T05:10:52.033Z,4.60
2019-04-20T05:13:19.934Z,3.93
2019-04-20T05:16:00.170Z,4.70
2019-04-20T05:18:43.481Z,3.83
2019-04-20T05:21:17.001Z,4.63
2019-04-20T05:23:47.723Z,4.10
2019-04-20T05:26:53.117Z,3.90
2019-04-20T05:29:06.778Z,4.20
2019-04-20T05:31:34.054Z,4.40
2019-04-20T05:34:20.476Z,4.40
2019-04-20T05:36:46.230Z,4.13
2019-04-20T05:39:25.169Z,5.00
2019-04-20T05:41:44.051Z,5.13
2019-04-20T05:44:16.922Z,4.23
2019-04-20T05:46:53.565Z,4.70
2019-04-20T05:49:26.901Z,4.90
2019-04-20T05:51:54.715Z,4.70
2019-04-20T05:54:23.319Z,3.40
2019-04-20T05:56:52.701Z,4.43
2019-04-20T05:59:24.201Z,4.50
2019-04-20T06:02:02.193Z,4.13
2019-04-20T06:04:28.153Z,4.77
2019-04-20T06:06:49.749Z,4.30
2019-04-20T06:09:23.995Z,4.47
2019-04-20T06:12:06.059Z,4.30
2019-04-20T06:14:15.251Z,4.37
2019-04-20T06:17:13.232Z,3.80
2019-04-20T06:19:58.634Z,4.23
2019-04-20T06:22:31.241Z,3.77
2019-04-20T06:25:26.181Z,4.70
2019-04-20T06:27:40.973Z,4.60
2019-04-20T06:30:08.598Z,4.30
2019-04-20T06:33:21.540Z,4.00
2019-04-20T06:36:01.277Z,4.97
2019-04-20T06:38:27.856Z,4.43
2019-04-20T06:43:16.232Z,4.40
2019-04-20T06:45:54.870Z,4.57
2019-04-20T06:48:13.500Z,4.03
2019-04-20T06:50:38.828Z,3.93
2019-04-20T06:53:32.459Z,3.90
2019-04-20T06:56:06.690Z,4.83
2019-04-20T06:58:43.910Z,4.10
2019-04-20T07:01:04.199Z,4.40
2019-04-20T07:03:49.412Z,3.80
2019-04-20T07:06:16.854Z,4.50
2019-04-20T07:11:04.683Z,4.10
2019-04-20T07:13:22.964Z,3.53
2019-04-20T07:15:57.108Z,3.53
2019-04-20T07:18:35.773Z,4.40
2019-04-20T07:21:12.707Z,3.77
2019-04-20T07:23:41.411Z,4.20
2019-04-20T07:26:21.033Z,4.10
2019-04-20T07:28:59.299Z,3.13
2019-04-20T07:31:06.870Z,4.10
2019-04-20T07:33:41.184Z,4.57
2019-04-20T07:36:05.797Z,4.67
2019-04-20T07:38:43.148Z,4.43
2019-04-20T07:41:08.718Z,4.10
2019-04-20T07:43:43.583Z,4.53
2019-04-20T07:46:11.757Z,3.70
2019-04-20T07:48:29.564Z,4.37
2019-04-20T07:50:55.660Z,4.00
2019-04-20T07:53:29.339Z,4.47
2019-04-20T07:56:05.042Z,3.20
2019-04-20T07:58:22.691Z,4.17
2019-04-20T08:01:16.574Z,4.53
2019-04-20T08:03:52.932Z,3.87
2019-04-20T08:06:26.404Z,3.90
2019-04-20T08:09:02.811Z,4.40
2019-04-20T08:11:37.995Z,3.77
2019-04-20T08:14:12.964Z,4.17
2019-04-20T08:19:07.883Z,4.43
2019-04-20T08:21:38.735Z,3.93
2019-04-20T08:24:02.477Z,4.47
2019-04-20T08:26:21.463Z,4.07
2019-04-20T08:28:58.694Z,3.57
2019-04-20T08:31:51.455Z,4.17
2019-04-20T08:34:33.640Z,4.50
2019-04-20T08:36:56.900Z,4.23
2019-04-20T08:39:37.717Z,3.87
2019-04-20T08:41:56.294Z,3.60
2019-04-20T08:47:03.780Z,4.13
2019-04-20T08:49:29.693Z,4.47
2019-04-20T08:52:06.015Z,4.67
2019-04-20T08:54:21.973Z,3.90
2019-04-20T08:56:41.567Z,5.00
2019-04-20T08:59:02.183Z,4.37
2019-04-20T09:01:33.797Z,3.93
2019-04-20T09:04:08.403Z,3.43
2019-04-20T09:06:43.842Z,3.73
2019-04-20T09:09:22.421Z,4.53
2019-04-20T09:11:49.114Z,4.50
2019-04-20T09:14:18.539Z,4.03
2019-04-20T09:16:54.567Z,3.50
2019-04-20T09:19:29.903Z,4.07
2019-04-20T09:21:55.169Z,4.30
2019-04-20T09:24:47.457Z,4.17
2019-04-20T09:27:04.768Z,4.30
2019-04-20T09:29:34.554Z,4.13
2019-04-20T09:32:20.911Z,4.50
2019-04-20T09:34:46.723Z,3.63
2019-04-20T09:37:40.054Z,3.87
2019-04-20T09:40:26.978Z,4.10
2019-04-20T09:42:47.793Z,4.50
2019-04-20T09:45:23.363Z,3.70
2019-04-20T09:47:50.238Z,4.23
2019-04-20T09:50:31.902Z,4.47
2019-04-20T09:53:02.465Z,5.00
2019-04-20T09:55:29.510Z,3.63
2019-04-20T09:58:01.495Z,4.00
2019-04-20T10:00:30.890Z,4.30
2019-04-20T10:02:44.658Z,4.27
2019-04-20T10:05:13.668Z,4.17
2019-04-20T10:07:42.222Z,3.67
2019-04-20T10:10:22.764Z,4.60
2019-04-20T10:12:39.926Z,4.60
2019-04-20T10:15:15.242Z,3.30
2019-04-20T10:17:37.337Z,3.57
2019-04-20T10:20:12.745Z,3.93
2019-04-20T10:22:36.089Z,3.60
2019-04-20T10:25:04.608Z,4.80
2019-04-20T10:27:32.717Z,4.77
2019-04-20T10:30:03.806Z,3.90
2019-04-20T10:32:37.490Z,5.07
2019-04-20T10:34:59.148Z,4.27
2019-04-20T10:37:31.537Z,3.90
2019-04-20T10:39:59.072Z,3.87
2019-04-20T10:42:26.451Z,4.43
2019-04-20T10:44:56.837Z,4.00
2019-04-20T10:47:23.596Z,3.97
2019-04-20T10:49:51.335Z,4.13
2019-04-20T10:52:19.897Z,4.00
2019-04-20T10:54:48.105Z,3.83
2019-04-20T10:57:15.513Z,3.47
2019-04-20T10:59:43.940Z,4.47
2019-04-20T11:02:12.109Z,3.60
2019-04-20T11:04:40.904Z,3.77
2019-04-20T11:07:10.422Z,4.00
2019-04-20T11:09:38.736Z,4.10
2019-04-20T11:12:08.194Z,4.10
2019-04-20T11:14:38.730Z,4.03
2019-04-20T11:17:06.632Z,3.63
2019-04-20T11:19:35.075Z,3.63
2019-04-20T11:22:02.323Z,5.50
2019-04-20T11:24:30.254Z,4.07
2019-04-20T11:26:58.361Z,3.90
2019-04-20T11:29:26.411Z,3.50
2019-04-20T11:31:55.839Z,3.10
2019-04-20T11:34:28.528Z,3.97
2019-04-20T11:36:53.053Z,3.77
2019-04-20T11:39:20.925Z,3.50
2019-04-20T11:41:49.777Z,3.70
2019-04-20T11:44:17.888Z,3.37
2019-04-20T11:46:45.680Z,3.70
2019-04-20T11:49:13.215Z,3.53
2019-04-20T11:51:41.430Z,2.87
2019-04-20T11:54:10.319Z,4.03
2019-04-20T11:56:41.881Z,5.60
2019-04-20T11:59:07.817Z,3.60
2019-04-20T12:02:05.885Z,3.63
2019-04-20T12:04:44.305Z,3.47
2019-04-20T12:07:06.793Z,3.37
2019-04-20T12:09:35.512Z,3.80
2019-04-20T12:12:14.190Z,3.30
2019-04-20T12:14:32.727Z,4.23
2019-04-20T12:17:00.099Z,3.13
2019-04-20T12:19:27.253Z,3.20
2019-04-20T12:21:54.358Z,4.33
2019-04-20T12:24:22.637Z,3.77
2019-04-20T12:26:51.016Z,3.00
2019-04-20T12:29:19.522Z,3.33
2019-04-20T12:31:51.693Z,3.43
2019-04-20T12:34:18.134Z,3.60
2019-04-20T12:36:45.500Z,4.27
2019-04-20T12:39:15.021Z,3.50
2019-04-20T12:41:49.818Z,3.23
2019-04-20T12:44:12.171Z,3.30
2019-04-20T12:46:39.929Z,3.30
2019-04-20T12:49:07.707Z,3.13
2019-04-20T12:51:47.464Z,3.17
2019-04-20T12:54:06.696Z,3.60
2019-04-20T12:56:35.071Z,3.23
2019-04-20T12:59:03.278Z,3.27
2019-04-20T13:01:30.876Z,3.60
2019-04-20T13:03:57.904Z,3.27
2019-04-20T13:06:25.881Z,3.00
2019-04-20T13:08:56.917Z,3.30
2019-04-20T13:11:48.665Z,4.20
2019-04-20T13:14:40.082Z,3.63
2019-04-20T13:17:08.403Z,3.77
2019-04-20T13:19:36.160Z,3.10
2019-04-20T13:22:05.260Z,3.27
2019-04-20T13:24:34.580Z,2.60
2019-04-20T13:27:02.885Z,2.67
2019-04-20T13:29:33.118Z,3.10
2019-04-20T13:32:00.326Z,2.70
2019-04-20T13:34:28.474Z,4.10
2019-04-20T13:36:56.030Z,3.20
2019-04-20T13:39:24.802Z,2.70
2019-04-20T13:42:03.491Z,3.77
2019-04-20T13:44:22.067Z,3.40
2019-04-20T13:46:51.190Z,3.60
2019-04-20T13:49:19.057Z,3.73
2019-04-20T13:51:50.740Z,3.17
2019-04-20T13:54:23.917Z,3.73
2019-04-20T13:56:50.057Z,3.10
2019-04-20T13:59:25.870Z,2.27
2019-04-20T14:02:04.649Z,2.50
2019-04-20T14:04:39.272Z,2.97
2019-04-20T14:07:07.527Z,2.97
2019-04-20T14:09:35.437Z,3.20
2019-04-20T14:12:13.926Z,3.30
2019-04-20T14:14:33.048Z,2.60
2019-04-20T14:17:01.256Z,2.90
2019-04-20T14:19:29.327Z,3.10
2019-04-20T14:21:57.188Z,2.97
2019-04-20T14:24:24.809Z,3.03
2019-04-20T14:26:52.878Z,3.40
2019-04-20T14:29:20.912Z,3.20
2019-04-20T14:31:48.092Z,3.50
2019-04-20T14:34:17.173Z,2.73
2019-04-20T14:36:44.598Z,3.13
2019-04-20T14:39:12.120Z,2.67
2019-04-20T14:41:40.351Z,2.60
2019-04-20T14:44:07.958Z,2.90
2019-04-20T14:46:35.870Z,3.40
2019-04-20T14:49:04.955Z,2.97
2019-04-20T14:51:33.110Z,2.90
2019-04-20T14:54:01.357Z,3.00
2019-04-20T14:56:29.656Z,2.90
2019-04-20T14:59:03.603Z,3.97
2019-04-20T15:01:54.652Z,3.67
2019-04-20T15:04:24.948Z,2.73
2019-04-20T15:06:52.830Z,3.00
2019-04-20T15:09:21.009Z,3.97
2019-04-20T15:11:48.488Z,3.10
2019-04-20T15:14:16.519Z,3.10
2019-04-20T15:16:44.708Z,3.13
2019-04-20T15:19:29.880Z,3.07
2019-04-20T15:21:59.754Z,3.00
2019-04-20T15:24:27.374Z,3.80
2019-04-20T15:26:54.575Z,3.27
2019-04-20T15:29:22.268Z,2.70
2019-04-20T15:31:50.128Z,3.57
2019-04-20T15:34:17.272Z,2.60
2019-04-20T15:36:44.551Z,3.03
2019-04-20T15:39:11.971Z,3.70
2019-04-20T15:41:39.211Z,2.50
2019-04-20T15:44:07.226Z,2.70
2019-04-20T15:46:37.074Z,3.80
2019-04-20T15:49:04.199Z,3.23
2019-04-20T15:51:32.193Z,2.90
2019-04-20T15:53:59.830Z,3.10
2019-04-20T15:56:29.134Z,3.20
2019-04-20T15:58:56.699Z,3.07
2019-04-20T16:01:28.327Z,3.20
2019-04-20T16:04:01.508Z,3.03
2019-04-20T16:06:29.565Z,3.03
2019-04-20T16:09:00.030Z,2.87
2019-04-20T16:11:28.774Z,3.00
2019-04-20T16:13:57.847Z,3.80
2019-04-20T16:16:25.675Z,3.50
2019-04-20T16:18:54.884Z,2.80
2019-04-20T16:21:26.280Z,3.00
2019-04-20T16:24:06.543Z,3.70
2019-04-20T16:26:53.814Z,3.27
2019-04-20T16:29:21.815Z,3.57
2019-04-20T16:31:50.257Z,4.00
2019-04-20T16:34:19.251Z,3.80
2019-04-20T16:36:48.388Z,3.20
2019-04-20T16:39:16.739Z,3.43
2019-04-20T16:41:44.481Z,3.17
2019-04-20T16:44:11.780Z,2.67
2019-04-20T16:46:38.863Z,3.53
2019-04-20T16:49:07.283Z,2.97
2019-04-20T16:51:36.603Z,3.37
2019-04-20T16:54:05.809Z,3.10
2019-04-20T16:56:35.028Z,4.17
2019-04-20T16:59:08.154Z,3.60
2019-04-20T17:01:32.475Z,3.10
2019-04-20T17:04:06.796Z,3.30
2019-04-20T17:06:29.835Z,4.30
2019-04-20T17:08:56.755Z,4.50
2019-04-20T17:11:23.863Z,4.53
2019-04-20T17:13:53.741Z,4.30
2019-04-20T17:16:21.751Z,3.83
2019-04-20T17:18:49.971Z,3.97
2019-04-20T17:21:23.205Z,3.63
2019-04-20T17:23:47.275Z,4.33
2019-04-20T17:26:20.949Z,3.57
2019-04-20T17:29:15.759Z,3.70
2019-04-20T17:32:05.703Z,4.00
2019-04-20T17:34:46.864Z,3.13
2019-04-20T17:37:02.467Z,3.80
2019-04-20T17:39:39.610Z,3.33
2019-04-20T17:42:13.248Z,3.83
2019-04-20T17:44:44.963Z,4.50
2019-04-20T17:47:18.832Z,4.60
2019-04-20T17:49:41.305Z,4.70
2019-04-20T17:52:26.726Z,3.47
2019-04-20T17:54:45.206Z,3.77
2019-04-20T17:57:13.149Z,3.43
2019-04-20T17:59:51.173Z,3.60
2019-04-20T18:03:04.581Z,3.77
2019-04-20T18:05:58.534Z,3.17
2019-04-20T18:08:26.213Z,3.23
2019-04-20T18:10:45.968Z,3.40
2019-04-20T18:13:12.343Z,3.07
2019-04-20T18:15:49.068Z,3.83
2019-04-20T18:18:39.003Z,3.23
2019-04-20T18:21:21.647Z,3.50
2019-04-20T18:23:51.601Z,3.03
2019-04-20T18:26:38.134Z,3.17
2019-04-20T18:29:26.007Z,3.57
2019-04-20T18:31:33.554Z,3.33
2019-04-20T18:34:11.350Z,3.17
2019-04-20T18:36:39.703Z,3.33
2019-04-20T18:39:09.786Z,3.37
2019-04-20T18:41:41.532Z,3.30
2019-04-20T18:44:06.395Z,3.60
2019-04-20T18:46:57.344Z,3.20
2019-04-20T18:49:19.905Z,3.30
2019-04-20T18:51:35.671Z,4.40
2019-04-20T18:54:08.246Z,3.30
2019-04-20T18:56:40.299Z,3.70
2019-04-20T18:59:05.192Z,3.57
2019-04-20T19:01:37.762Z,3.40
2019-04-20T19:04:05.730Z,4.27
2019-04-20T19:06:34.051Z,4.00
2019-04-20T19:09:02.914Z,3.67
2019-04-20T19:11:30.894Z,4.10
2019-04-20T19:14:34.490Z,3.70
2019-04-20T19:17:08.950Z,3.87
2019-04-20T19:19:39.413Z,3.57
2019-04-20T19:22:01.961Z,3.43
2019-04-20T19:24:33.072Z,4.50
2019-04-20T19:27:03.565Z,3.60
2019-04-20T19:29:34.653Z,4.00
2019-04-20T19:32:11.620Z,4.00
2019-04-20T19:34:43.232Z,4.10
2019-04-20T19:37:03.880Z,4.20
2019-04-20T19:39:39.966Z,4.43
2019-04-20T19:42:08.610Z,4.60
2019-04-20T19:44:38.115Z,4.00
2019-04-20T19:47:13.763Z,4.07
2019-04-20T19:49:36.029Z,4.20
2019-04-20T19:52:25.442Z,4.00
2019-04-20T19:54:49.337Z,3.70
2019-04-20T19:57:05.418Z,4.30
2019-04-20T19:59:34.315Z,4.43
2019-04-20T20:01:53.827Z,4.60
2019-04-20T20:04:21.754Z,4.10
2019-04-20T20:06:56.196Z,4.23
2019-04-20T20:09:20.047Z,3.60
2019-04-20T20:11:49.534Z,4.30
2019-04-20T20:14:19.247Z,4.10
2019-04-20T20:17:06.921Z,4.20
2019-04-20T20:19:32.801Z,4.40
2019-04-20T20:21:59.021Z,4.17
2019-04-20T20:24:17.448Z,4.13
2019-04-20T20:26:52.675Z,4.00
2019-04-20T20:29:27.724Z,4.70
2019-04-20T20:31:58.177Z,5.07
2019-04-20T20:34:24.764Z,4.73
2019-04-20T20:36:53.920Z,4.73
2019-04-20T20:39:21.339Z,5.20
2019-04-20T20:41:56.345Z,4.63
2019-04-20T20:44:30.175Z,4.90
2019-04-20T20:46:55.104Z,4.33
2019-04-20T20:49:33.384Z,4.43
2019-04-20T20:52:02.204Z,4.37
2019-04-20T20:54:28.414Z,4.47
2019-04-20T20:56:51.436Z,5.47
2019-04-20T20:59:25.726Z,5.27
2019-04-20T21:01:50.361Z,5.17
2019-04-20T21:04:11.868Z,5.13
2019-04-20T21:06:40.306Z,5.53
2019-04-20T21:09:08.551Z,4.67
2019-04-20T21:11:38.010Z,5.20
2019-04-20T21:14:06.849Z,4.60
2019-04-20T21:16:40.468Z,4.63
2019-04-20T21:19:21.453Z,5.20
2019-04-20T21:21:44.467Z,4.40
2019-04-20T21:24:21.585Z,4.80
2019-04-20T21:26:49.671Z,5.30
2019-04-20T21:29:21.390Z,5.30
2019-04-20T21:31:54.450Z,4.90
2019-04-20T21:34:19.864Z,5.40
2019-04-20T21:36:45.469Z,4.60
2019-04-20T21:39:21.856Z,5.57
2019-04-20T21:41:49.668Z,5.37
2019-04-20T21:44:24.142Z,4.97
2019-04-20T21:46:48.780Z,4.80
2019-04-20T21:49:26.248Z,6.70
2019-04-20T21:51:49.681Z,5.63
2019-04-20T21:54:12.009Z,5.80
2019-04-20T21:56:48.801Z,5.20
2019-04-20T21:59:17.562Z,5.10
2019-04-20T22:01:41.127Z,4.87
2019-04-20T22:04:08.410Z,5.53
2019-04-20T22:06:36.302Z,5.60
2019-04-20T22:09:10.629Z,5.03
2019-04-20T22:11:38.057Z,5.47
2019-04-20T22:14:12.909Z,5.07
2019-04-20T22:16:42.578Z,4.50
2019-04-20T22:19:22.397Z,5.20
2019-04-20T22:21:50.325Z,5.20
2019-04-20T22:24:19.533Z,4.80
2019-04-20T22:26:51.379Z,4.37
2019-04-20T22:29:05.943Z,6.20
2019-04-20T22:31:34.025Z,5.10
2019-04-20T22:34:07.711Z,4.90
2019-04-20T22:36:34.356Z,5.77
2019-04-20T22:39:24.543Z,4.63
2019-04-20T22:42:00.183Z,5.13
2019-04-20T22:44:27.073Z,5.53
2019-04-20T22:46:54.317Z,5.70
2019-04-20T22:49:38.771Z,4.80
2019-04-20T22:52:00.673Z,4.53
2019-04-20T22:54:38.043Z,4.80
2019-04-20T22:57:02.336Z,4.70
2019-04-20T22:59:23.374Z,4.30
2019-04-20T23:01:55.241Z,5.13
2019-04-20T23:04:19.202Z,5.30
2019-04-20T23:06:50.095Z,5.00
2019-04-20T23:09:16.892Z,4.67
2019-04-20T23:11:45.158Z,5.23
2019-04-20T23:14:14.320Z,5.10
2019-04-20T23:16:47.214Z,5.20
2019-04-20T23:19:11.978Z,5.77
2019-04-20T23:21:46.937Z,5.10
2019-04-20T23:24:13.296Z,4.63
2019-04-20T23:26:43.749Z,5.20
2019-04-20T23:29:11.274Z,5.63
2019-04-20T23:31:47.328Z,5.23
2019-04-20T23:34:15.320Z,5.00
2019-04-20T23:36:41.763Z,5.17
2019-04-20T23:39:06.708Z,5.03
2019-04-20T23:41:35.611Z,5.33
2019-04-20T23:44:23.030Z,5.20
2019-04-20T23:47:28.090Z,6.13
2019-04-20T23:50:16.320Z,6.00
2019-04-20T23:52:48.773Z,6.23
2019-04-20T23:55:02.807Z,5.80
2019-04-20T23:57:26.283Z,5.60
2019-04-20T23:59:53.777Z,6.03
